createdAt,value
2022-08-22T00:02:43.020Z,101753.38
2022-08-22T00:02:55.897Z,101669.41
2022-08-22T00:24:48.824Z,101625.66
2022-08-22T00:35:05.694Z,101791.44
2022-08-22T00:44:28.866Z,101748.97
2022-08-22T00:53:54.561Z,101633.50
2022-08-22T01:04:47.481Z,101623.59
2022-08-22T01:46:20.719Z,101629.22
2022-08-22T01:49:50.601Z,101642.31
2022-08-22T02:03:31.799Z,101626.63
2022-08-22T02:13:59.526Z,101829.81
2022-08-22T02:31:52.353Z,101623.69
2022-08-22T02:51:27.533Z,101799.22
2022-08-22T02:55:01.999Z,101606.88
2022-08-22T03:45:38.418Z,101615.94
2022-08-22T04:42:49.696Z,101614.06
2022-08-22T04:47:46.055Z,101616.78
2022-08-22T04:50:34.607Z,101710.06
2022-08-22T05:19:29.608Z,101786.75
2022-08-22T05:22:08.450Z,101648.34
2022-08-22T05:24:47.128Z,101750.84
2022-08-22T05:27:35.289Z,101697.28
2022-08-22T05:33:10.883Z,101804.41
2022-08-22T05:36:06.984Z,101654.03
2022-08-22T05:38:50.990Z,101637.19
2022-08-22T05:41:23.456Z,101748.34
2022-08-22T05:44:05.561Z,101653.50
2022-08-22T05:49:48.438Z,101733.06
2022-08-22T05:52:52.387Z,101806.19
2022-08-22T05:55:30.234Z,101690.91
2022-08-22T05:58:22.957Z,101743.13
2022-08-22T06:01:21.946Z,101783.81
2022-08-22T06:04:05.159Z,101682.09
2022-08-22T06:06:48.909Z,101773.38
2022-08-22T06:09:35.293Z,101806.75
2022-08-22T06:12:16.472Z,101676.03
2022-08-22T06:15:02.735Z,101689.06
2022-08-22T06:17:49.114Z,101858.47
2022-08-22T06:20:42.290Z,101667.72
2022-08-22T06:23:25.048Z,101844.69
2022-08-22T06:25:59.978Z,101817.78
2022-08-22T06:28:33.623Z,101868.03
2022-08-22T06:31:08.377Z,101816.88
2022-08-22T06:33:46.131Z,101698.50
2022-08-22T06:36:33.972Z,101864.63
2022-08-22T06:39:18.640Z,101715.22
2022-08-22T06:42:07.827Z,101803.66
2022-08-22T06:44:47.864Z,101869.38
2022-08-22T06:50:21.588Z,101665.00
2022-08-22T06:52:58.125Z,101781.06
2022-08-22T06:55:33.147Z,101858.22
2022-08-22T07:01:11.222Z,101693.38
2022-08-22T07:03:50.142Z,101748.38
2022-08-22T07:06:35.872Z,101859.66
2022-08-22T07:09:32.125Z,101753.72
2022-08-22T07:12:03.781Z,101734.50
2022-08-22T07:14:54.386Z,101863.03
2022-08-22T07:17:23.841Z,101802.75
2022-08-22T07:20:13.368Z,101763.22
2022-08-22T07:23:03.285Z,101858.25
2022-08-22T07:25:50.941Z,101856.00
2022-08-22T07:28:51.493Z,101688.88
2022-08-22T07:31:38.217Z,101680.66
2022-08-22T07:34:37.884Z,101807.50
2022-08-22T07:37:17.676Z,101789.00
2022-08-22T07:39:54.579Z,101692.72
2022-08-22T07:42:32.804Z,101765.63
2022-08-22T07:45:08.673Z,101700.41
2022-08-22T07:47:58.195Z,101804.53
2022-08-22T07:50:32.192Z,101810.59
2022-08-22T07:56:33.153Z,101698.06
2022-08-22T08:02:05.716Z,101666.56
2022-08-22T08:05:06.039Z,101852.59
2022-08-22T08:10:40.941Z,101781.75
2022-08-22T08:13:17.034Z,101742.63
2022-08-22T08:16:04.226Z,101805.06
2022-08-22T08:18:40.949Z,101850.75
2022-08-22T08:21:40.604Z,101675.72
2022-08-22T08:24:12.677Z,101729.09
2022-08-22T08:26:52.489Z,101668.72
2022-08-22T08:29:31.984Z,101657.97
2022-08-22T08:32:20.221Z,101655.31
2022-08-22T08:35:01.213Z,101803.03
2022-08-22T08:37:45.202Z,101833.00
2022-08-22T08:40:51.104Z,101676.06
2022-08-22T08:43:38.924Z,101766.34
2022-08-22T08:46:56.460Z,101686.34
2022-08-22T08:49:50.649Z,101677.72
2022-08-22T08:56:01.912Z,101746.97
2022-08-22T08:59:03.228Z,101667.81
2022-08-22T09:02:23.899Z,101726.72
2022-08-22T09:05:20.751Z,101834.31
2022-08-22T09:08:32.404Z,101775.63
2022-08-22T09:11:42.664Z,101812.50
2022-08-22T09:14:44.344Z,101721.16
2022-08-22T09:17:58.225Z,101733.75
2022-08-22T09:21:04.371Z,101621.50
2022-08-22T09:29:08.217Z,101642.69
2022-08-22T09:33:56.303Z,101731.91
2022-08-22T09:43:24.178Z,101708.47
2022-08-22T09:46:32.027Z,101771.72
2022-08-22T09:49:52.589Z,101646.00
2022-08-22T10:02:43.866Z,101674.69
2022-08-22T10:05:44.294Z,101779.56
2022-08-22T10:15:22.647Z,101649.47
2022-08-22T10:24:59.899Z,101637.72
2022-08-22T10:28:29.485Z,101773.66
2022-08-22T10:45:54.831Z,101759.53
2022-08-22T10:55:31.660Z,101617.25
2022-08-22T11:05:30.569Z,101628.16
2022-08-22T11:12:01.827Z,101637.56
2022-08-22T11:15:34.933Z,101716.53
2022-08-22T11:18:57.949Z,101628.91
2022-08-22T11:22:40.229Z,101650.81
2022-08-22T11:25:45.242Z,101741.75
2022-08-22T11:29:16.657Z,101735.69
2022-08-22T11:32:19.746Z,101736.50
2022-08-22T11:38:03.041Z,101688.63
2022-08-22T11:40:44.025Z,101618.88
2022-08-22T11:43:38.446Z,101581.78
2022-08-22T11:46:24.363Z,101603.72
2022-08-22T11:49:26.857Z,101727.59
2022-08-22T11:52:22.714Z,101638.97
2022-08-22T11:55:14.255Z,101686.03
2022-08-22T11:57:45.019Z,101584.22
2022-08-22T12:00:39.482Z,101581.63
2022-08-22T12:03:25.266Z,101729.88
2022-08-22T12:06:01.349Z,101720.63
2022-08-22T12:09:05.617Z,101731.13
2022-08-22T12:11:43.361Z,101722.13
2022-08-22T12:14:27.127Z,101632.88
2022-08-22T12:17:08.798Z,101711.66
2022-08-22T12:20:12.848Z,101645.16
2022-08-22T12:23:21.618Z,101555.84
2022-08-22T12:26:22.145Z,101564.81
2022-08-22T12:29:03.329Z,101668.63
2022-08-22T12:31:36.882Z,101682.78
2022-08-22T12:34:14.896Z,101608.81
2022-08-22T12:37:16.688Z,101545.53
2022-08-22T12:40:06.160Z,101710.06
2022-08-22T12:42:52.454Z,101678.69
2022-08-22T12:45:35.465Z,101595.13
2022-08-22T12:48:21.826Z,101699.47
2022-08-22T12:50:52.912Z,101707.34
2022-08-22T12:53:38.575Z,101705.72
2022-08-22T12:56:18.583Z,101702.06
2022-08-22T12:59:18.323Z,101694.88
2022-08-22T13:01:47.943Z,101675.41
2022-08-22T13:04:32.449Z,101665.41
2022-08-22T13:07:18.369Z,101666.97
2022-08-22T13:09:52.380Z,101641.97
2022-08-22T13:12:27.595Z,101685.44
2022-08-22T13:15:05.545Z,101644.53
2022-08-22T13:17:37.875Z,101686.25
2022-08-22T13:20:12.553Z,101690.84
2022-08-22T13:22:45.257Z,101685.25
2022-08-22T13:25:25.504Z,101686.69
2022-08-22T13:27:54.959Z,101671.47
2022-08-22T13:30:30.148Z,101678.88
2022-08-22T13:33:04.421Z,101657.69
2022-08-22T13:35:44.599Z,101647.28
2022-08-22T13:38:26.173Z,101677.16
2022-08-22T13:40:56.945Z,101639.81
2022-08-22T13:43:27.224Z,101660.69
2022-08-22T13:45:56.620Z,101662.66
2022-08-22T13:48:44.472Z,101665.78
2022-08-22T13:51:23.179Z,101650.44
2022-08-22T13:54:00.769Z,101623.16
2022-08-22T13:56:38.141Z,101621.59
2022-08-22T13:59:25.302Z,101646.19
2022-08-22T14:02:06.890Z,101607.31
2022-08-22T14:04:39.373Z,101636.09
2022-08-22T14:07:27.590Z,101640.56
2022-08-22T14:09:58.318Z,101650.22
2022-08-22T14:12:33.560Z,101623.88
2022-08-22T14:15:21.498Z,101640.69
2022-08-22T14:17:51.892Z,101635.88
2022-08-22T14:20:32.071Z,101613.47
2022-08-22T14:23:06.946Z,101608.66
2022-08-22T14:25:35.996Z,101639.91
2022-08-22T14:28:09.443Z,101627.06
2022-08-22T14:30:59.356Z,101621.06
2022-08-22T14:33:35.585Z,101635.00
2022-08-22T14:36:19.136Z,101631.69
2022-08-22T14:38:51.643Z,101604.13
2022-08-22T14:41:56.183Z,101642.03
2022-08-22T14:44:23.333Z,101593.47
2022-08-22T14:46:53.631Z,101618.38
2022-08-22T14:49:28.656Z,101627.59
2022-08-22T14:52:04.745Z,101616.72
2022-08-22T14:54:32.828Z,101617.72
2022-08-22T14:57:10.087Z,101633.53
2022-08-22T14:59:50.373Z,101625.38
2022-08-22T15:02:25.858Z,101625.81
2022-08-22T15:04:54.338Z,101630.16
2022-08-22T15:07:24.216Z,101621.81
2022-08-22T15:09:54.856Z,101577.66
2022-08-22T15:12:27.058Z,101612.06
2022-08-22T15:14:58.169Z,101620.72
2022-08-22T15:17:32.749Z,101609.31
2022-08-22T15:20:08.882Z,101620.59
2022-08-22T15:22:39.445Z,101599.16
2022-08-22T15:25:15.873Z,101609.44
2022-08-22T15:27:48.790Z,101595.84
2022-08-22T15:30:18.844Z,101499.06
2022-08-22T15:32:50.476Z,101531.50
2022-08-22T15:35:29.952Z,101593.28
2022-08-22T15:40:48.288Z,101497.59
2022-08-22T15:43:46.853Z,101528.41
2022-08-22T15:46:39.683Z,101501.31
2022-08-22T15:49:13.307Z,101496.38
2022-08-22T15:51:52.490Z,101590.38
2022-08-22T15:54:25.623Z,101582.53
2022-08-22T15:57:25.637Z,101504.16
2022-08-22T16:02:53.543Z,101396.72
2022-08-22T16:05:27.340Z,101576.22
2022-08-22T16:08:03.222Z,101574.16
2022-08-22T16:10:35.110Z,101560.44
2022-08-22T16:13:14.824Z,101477.00
2022-08-22T16:19:27.667Z,101405.91
2022-08-22T16:22:45.666Z,101405.28
2022-08-22T16:25:46.719Z,101393.34
2022-08-22T16:31:59.803Z,101566.63
2022-08-22T16:35:04.033Z,101565.88
2022-08-22T16:38:19.423Z,101567.38
2022-08-22T16:41:39.576Z,101382.13
2022-08-22T16:55:13.049Z,101393.44
2022-08-22T16:58:15.892Z,101570.25
2022-08-22T17:01:10.905Z,101562.34
2022-08-22T17:03:52.720Z,101455.22
2022-08-22T17:06:51.806Z,101564.06
2022-08-22T17:10:14.724Z,101562.56
2022-08-22T17:13:18.556Z,101365.25
2022-08-22T17:16:22.181Z,101386.41
2022-08-22T17:19:58.285Z,101562.59
2022-08-22T17:22:44.989Z,101405.88
2022-08-22T17:25:46.120Z,101501.56
2022-08-22T17:28:40.791Z,101584.13
2022-08-22T17:31:33.132Z,101524.97
2022-08-22T18:05:35.661Z,101586.03
2022-08-22T18:29:53.537Z,101427.84
2022-08-22T18:39:47.356Z,101591.38
2022-08-22T18:42:27.113Z,101414.13
2022-08-22T18:45:13.259Z,101463.00
2022-08-22T18:48:07.028Z,101459.75
2022-08-22T18:51:11.521Z,101593.69
2022-08-22T18:54:36.486Z,101433.56
2022-08-22T18:57:49.529Z,101397.50
2022-08-22T19:00:59.086Z,101606.66
2022-08-22T19:03:59.566Z,101613.56
2022-08-22T19:07:08.024Z,101544.63
2022-08-22T19:10:30.378Z,101615.31
2022-08-22T19:13:22.389Z,101617.00
2022-08-22T19:16:18.139Z,101442.88
2022-08-22T19:19:30.598Z,101460.09
2022-08-22T19:22:24.575Z,101616.44
2022-08-22T19:25:31.904Z,101422.91
2022-08-22T19:28:38.615Z,101621.25
2022-08-22T19:34:47.156Z,101501.19
2022-08-22T19:37:34.170Z,101425.03
2022-08-22T19:40:08.037Z,101503.47
2022-08-22T19:42:50.781Z,101553.09
2022-08-22T19:45:32.886Z,101526.44
2022-08-22T19:51:28.990Z,101591.31
2022-08-22T19:54:06.421Z,101637.13
2022-08-22T19:57:10.161Z,101578.28
2022-08-22T20:00:33.462Z,101637.63
2022-08-22T20:03:11.020Z,101508.72
2022-08-22T20:05:56.647Z,101592.84
2022-08-22T20:08:59.070Z,101532.69
2022-08-22T20:11:56.705Z,101495.16
2022-08-22T20:14:33.099Z,101629.41
2022-08-22T20:17:18.638Z,101632.00
2022-08-22T20:22:54.218Z,101414.63
2022-08-22T20:25:42.560Z,101449.22
2022-08-22T20:28:48.896Z,101585.09
2022-08-22T20:31:33.413Z,101491.13
2022-08-22T20:34:03.664Z,101440.97
2022-08-22T20:36:40.489Z,101573.47
2022-08-22T20:39:20.774Z,101620.41
2022-08-22T20:42:02.915Z,101613.94
2022-08-22T20:44:40.158Z,101622.69
2022-08-22T20:47:22.954Z,101417.53
2022-08-22T20:49:58.642Z,101500.69
2022-08-22T20:52:31.357Z,101558.75
2022-08-22T20:55:05.344Z,101519.13
2022-08-22T20:57:34.924Z,101569.91
2022-08-22T21:00:15.788Z,101586.59
2022-08-22T21:03:00.551Z,101456.16
2022-08-22T21:05:45.122Z,101433.31
2022-08-22T21:08:21.145Z,101444.31
2022-08-22T21:11:03.008Z,101477.81
2022-08-22T21:13:41.530Z,101404.63
2022-08-22T21:16:22.454Z,101440.88
2022-08-22T21:18:55.234Z,101529.88
2022-08-22T21:21:37.930Z,101403.97
2022-08-22T21:24:10.671Z,101434.16
2022-08-22T21:26:49.546Z,101577.44
2022-08-22T21:29:25.309Z,101561.44
2022-08-22T21:32:15.083Z,101513.03
2022-08-22T21:34:56.486Z,101427.16
2022-08-22T21:37:31.222Z,101598.38
2022-08-22T21:40:15.711Z,101617.13
2022-08-22T21:43:00.049Z,101401.13
2022-08-22T21:45:39.932Z,101390.94
2022-08-22T21:48:47.869Z,101607.41
2022-08-22T21:51:30.886Z,101406.94
2022-08-22T21:54:50.580Z,101604.16
2022-08-22T21:57:38.613Z,101405.47
2022-08-22T22:00:11.751Z,101415.19
2022-08-22T22:02:53.801Z,101421.47
2022-08-22T22:05:39.637Z,101611.88
2022-08-22T22:08:36.722Z,101409.34
2022-08-22T22:11:21.202Z,101425.50
2022-08-22T22:14:03.653Z,101598.16
2022-08-22T22:16:43.815Z,101533.38
2022-08-22T22:19:11.238Z,101387.81
2022-08-22T22:21:51.189Z,101564.63
2022-08-22T22:24:25.444Z,101595.91
2022-08-22T22:27:00.872Z,101542.13
2022-08-22T22:29:45.079Z,101589.91
2022-08-22T22:32:15.097Z,101403.38
2022-08-22T22:34:44.988Z,101377.03
2022-08-22T22:37:33.153Z,101510.06
2022-08-22T22:40:16.690Z,101367.03
2022-08-22T22:42:57.463Z,101516.41
2022-08-22T22:45:30.343Z,101492.16
2022-08-22T22:48:09.471Z,101434.28
2022-08-22T22:50:45.412Z,101490.53
2022-08-22T22:53:43.038Z,101384.13
2022-08-22T22:56:49.509Z,101513.81
2022-08-22T22:59:25.690Z,101579.06
2022-08-22T23:02:21.490Z,101392.03
2022-08-22T23:05:13.892Z,101387.22
2022-08-22T23:07:56.805Z,101551.03
2022-08-22T23:10:34.561Z,101532.59
2022-08-22T23:14:55.195Z,101394.31
2022-08-22T23:25:13.596Z,101582.75
2022-08-22T23:28:14.146Z,101387.81
2022-08-22T23:31:32.778Z,101385.19
2022-08-22T23:34:41.553Z,101375.31
2022-08-22T23:37:13.400Z,101561.00
2022-08-22T23:40:07.540Z,101405.34
2022-08-22T23:48:37.133Z,101406.81
2022-08-22T23:54:10.719Z,101370.16
2022-08-22T23:58:00.328Z,101582.63
